createdAt,value
2022-10-14T00:00:10.953Z,14.48
2022-10-14T00:00:44.006Z,14.48
2022-10-14T00:01:02.226Z,14.55
2022-10-14T00:01:17.523Z,14.58
2022-10-14T00:01:32.901Z,14.63
2022-10-14T00:02:05.860Z,14.67
2022-10-14T00:02:38.452Z,14.66
2022-10-14T00:02:52.452Z,14.64
2022-10-14T00:03:25.214Z,14.64
2022-10-14T00:03:57.983Z,14.74
2022-10-14T00:04:10.967Z,14.64
2022-10-14T00:04:23.797Z,14.61
2022-10-14T00:04:37.323Z,14.58
2022-10-14T00:05:10.333Z,14.48
2022-10-14T00:05:23.400Z,14.37
2022-10-14T00:05:56.316Z,14.37
2022-10-14T00:06:31.380Z,14.28
2022-10-14T00:06:44.865Z,14.23
2022-10-14T00:06:57.875Z,14.16
2022-10-14T00:07:30.819Z,14.22
2022-10-14T00:07:44.704Z,14.43
2022-10-14T00:07:59.573Z,14.51
2022-10-14T00:08:32.474Z,14.64
2022-10-14T00:08:45.417Z,14.62
2022-10-14T00:09:01.668Z,14.65
2022-10-14T00:09:14.477Z,14.64
2022-10-14T00:09:27.526Z,14.49
2022-10-14T00:10:00.281Z,14.48
2022-10-14T00:10:13.301Z,14.33
2022-10-14T00:10:26.169Z,14.33
2022-10-14T00:10:39.677Z,14.35
2022-10-14T00:10:52.490Z,14.25
2022-10-14T00:11:06.647Z,14.19
2022-10-14T00:11:25.244Z,14.25
2022-10-14T00:11:38.277Z,14.32
2022-10-14T00:12:11.177Z,14.33
2022-10-14T00:12:24.086Z,14.33
2022-10-14T00:12:37.107Z,14.38
2022-10-14T00:13:11.933Z,14.43
2022-10-14T00:13:24.946Z,14.40
2022-10-14T00:13:59.772Z,14.36
2022-10-14T00:14:15.225Z,14.27
2022-10-14T00:14:28.083Z,14.25
2022-10-14T00:14:40.955Z,14.30
2022-10-14T00:14:54.271Z,14.30
2022-10-14T00:15:07.777Z,14.32
2022-10-14T00:15:20.995Z,14.33
2022-10-14T00:15:40.733Z,14.40
2022-10-14T00:15:53.929Z,14.24
2022-10-14T00:16:30.749Z,14.25
2022-10-14T00:16:44.829Z,14.23
2022-10-14T00:16:57.639Z,14.27
2022-10-14T00:17:10.996Z,14.27
2022-10-14T00:17:43.922Z,14.32
2022-10-14T00:17:57.091Z,14.40
2022-10-14T00:18:10.319Z,14.44
2022-10-14T00:18:23.173Z,14.44
2022-10-14T00:18:36.011Z,14.37
2022-10-14T00:18:49.116Z,14.39
2022-10-14T00:19:02.908Z,14.42
2022-10-14T00:19:15.883Z,14.44
2022-10-14T00:19:28.695Z,14.46
2022-10-14T00:19:42.499Z,14.40
2022-10-14T00:20:15.466Z,14.43
2022-10-14T00:20:58.395Z,14.46
2022-10-14T00:21:11.537Z,14.46
2022-10-14T00:21:24.536Z,14.37
2022-10-14T00:21:38.635Z,14.40
2022-10-14T00:21:51.676Z,14.45
2022-10-14T00:22:06.501Z,14.46
2022-10-14T00:22:19.992Z,14.53
2022-10-14T00:22:32.948Z,14.54
2022-10-14T00:22:45.997Z,14.53
2022-10-14T00:22:58.861Z,14.49
2022-10-14T00:23:11.663Z,14.46
2022-10-14T00:23:44.922Z,14.41
2022-10-14T00:24:18.986Z,14.46
2022-10-14T00:24:32.286Z,14.44
2022-10-14T00:24:45.296Z,14.38
2022-10-14T00:24:58.372Z,14.35
2022-10-14T00:25:11.346Z,14.40
2022-10-14T00:25:26.362Z,14.41
2022-10-14T00:25:39.462Z,14.47
2022-10-14T00:25:52.370Z,14.45
2022-10-14T00:26:27.537Z,14.42
2022-10-14T00:27:00.429Z,14.36
2022-10-14T00:27:13.458Z,14.42
2022-10-14T00:27:46.204Z,14.42
2022-10-14T00:28:03.674Z,14.34
2022-10-14T00:28:16.749Z,14.30
2022-10-14T00:28:49.788Z,14.34
2022-10-14T00:29:03.536Z,14.34
2022-10-14T00:29:18.874Z,14.29
2022-10-14T00:29:32.114Z,14.28
2022-10-14T00:29:45.452Z,14.30
2022-10-14T00:29:58.481Z,14.29
2022-10-14T00:30:11.860Z,14.24
2022-10-14T00:30:25.213Z,14.25
2022-10-14T00:30:38.193Z,14.25
2022-10-14T00:30:58.658Z,14.27
2022-10-14T00:31:31.736Z,14.30
2022-10-14T00:31:44.779Z,14.40
2022-10-14T00:31:58.066Z,14.42
2022-10-14T00:32:10.922Z,14.44
2022-10-14T00:40:01.666Z,14.42
2022-10-14T00:40:14.778Z,14.40
2022-10-14T00:40:28.436Z,14.41
2022-10-14T00:40:41.505Z,14.41
2022-10-14T00:40:54.774Z,14.41
2022-10-14T00:41:08.746Z,14.42
2022-10-14T00:41:28.329Z,14.39
2022-10-14T00:41:41.829Z,14.42
2022-10-14T00:41:54.814Z,14.46
2022-10-14T00:42:13.293Z,14.41
2022-10-14T00:42:26.406Z,14.36
2022-10-14T00:42:39.238Z,14.39
2022-10-14T00:42:52.191Z,14.34
2022-10-14T00:43:09.895Z,14.30
2022-10-14T01:12:33.543Z,14.05
2022-10-14T01:12:53.137Z,13.96
2022-10-14T01:13:27.001Z,13.97
2022-10-14T01:14:24.766Z,14.01
2022-10-14T01:14:46.815Z,13.78
2022-10-14T01:15:05.293Z,13.85
2022-10-14T01:16:02.019Z,13.93
2022-10-14T01:16:47.605Z,13.97
2022-10-14T01:23:32.711Z,14.03
2022-10-14T01:24:02.820Z,13.87
2022-10-14T01:24:18.389Z,13.86
2022-10-14T01:25:02.167Z,13.77
2022-10-14T01:25:40.714Z,13.81
2022-10-14T01:26:02.350Z,13.81
2022-10-14T01:26:23.718Z,13.78
2022-10-14T01:26:55.404Z,13.78
2022-10-14T01:27:16.061Z,13.77
2022-10-14T01:27:57.904Z,13.67
2022-10-14T01:28:19.735Z,13.89
2022-10-14T01:54:01.005Z,13.69
2022-10-14T01:54:19.604Z,13.66
2022-10-14T01:54:35.235Z,13.68
2022-10-14T01:54:50.069Z,13.75
2022-10-14T01:55:09.352Z,13.76
2022-10-14T01:55:25.085Z,13.79
2022-10-14T01:55:41.772Z,13.79
2022-10-14T01:56:04.027Z,13.79
2022-10-14T01:56:17.029Z,13.73
2022-10-14T01:56:30.650Z,13.76
2022-10-14T01:57:05.446Z,13.79
2022-10-14T01:57:38.786Z,13.74
2022-10-14T01:57:52.081Z,13.81
2022-10-14T01:58:04.907Z,13.76
2022-10-14T01:58:24.788Z,13.73
2022-10-14T01:58:57.529Z,13.77
2022-10-14T01:59:30.488Z,13.71
2022-10-14T02:00:04.304Z,13.79
2022-10-14T02:00:38.374Z,13.90
2022-10-14T02:00:51.742Z,13.95
2022-10-14T02:06:23.011Z,13.83
2022-10-14T02:06:37.434Z,13.78
2022-10-14T02:07:15.407Z,13.69
2022-10-14T02:07:40.351Z,13.56
2022-10-14T02:08:03.896Z,13.42
2022-10-14T02:09:59.923Z,13.63
2022-10-14T02:10:35.432Z,13.69
2022-10-14T02:11:11.440Z,13.78
2022-10-14T02:41:00.419Z,13.82
2022-10-14T02:41:15.472Z,13.89
2022-10-14T02:41:31.359Z,13.68
2022-10-14T02:41:44.250Z,13.65
2022-10-14T02:42:17.779Z,13.60
2022-10-14T02:42:50.517Z,13.63
2022-10-14T02:43:03.522Z,13.69
2022-10-14T02:43:36.490Z,13.71
2022-10-14T02:43:49.466Z,13.61
2022-10-14T02:44:02.305Z,13.65
2022-10-14T02:44:15.302Z,13.73
2022-10-14T02:44:59.422Z,13.74
2022-10-14T02:45:32.319Z,13.86
2022-10-14T02:45:45.520Z,13.73
2022-10-14T02:45:59.551Z,13.71
2022-10-14T02:46:13.467Z,13.67
2022-10-14T02:46:46.351Z,13.63
2022-10-14T02:47:19.125Z,13.75
2022-10-14T02:47:32.151Z,13.70
2022-10-14T02:47:45.389Z,13.64
2022-10-14T02:47:58.308Z,13.63
2022-10-14T02:48:11.516Z,13.59
2022-10-14T02:48:44.290Z,13.62
2022-10-14T02:48:57.206Z,13.71
2022-10-14T02:49:10.047Z,13.66
2022-10-14T02:49:22.988Z,13.66
2022-10-14T02:49:35.965Z,13.55
2022-10-14T02:49:49.170Z,13.37
2022-10-14T02:50:21.922Z,13.33
2022-10-14T02:50:34.917Z,13.34
2022-10-14T02:51:07.765Z,13.37
2022-10-14T02:51:20.678Z,13.46
2022-10-14T02:51:53.420Z,13.46
2022-10-14T02:52:06.241Z,13.56
2022-10-14T02:52:19.336Z,13.64
2022-10-14T02:52:32.513Z,13.62
2022-10-14T02:52:45.597Z,13.57
2022-10-14T02:52:58.415Z,13.54
2022-10-14T02:53:11.839Z,13.55
2022-10-14T02:53:25.121Z,13.52
2022-10-14T02:53:38.173Z,13.48
2022-10-14T02:53:51.006Z,13.48
2022-10-14T02:54:23.738Z,13.54
2022-10-14T02:54:36.675Z,13.53
2022-10-14T02:54:49.714Z,13.55
2022-10-14T02:55:02.575Z,13.62
2022-10-14T02:55:35.330Z,13.72
2022-10-14T02:55:48.187Z,13.74
2022-10-14T02:56:03.168Z,13.73
2022-10-14T02:56:16.629Z,13.65
2022-10-14T02:56:29.467Z,13.67
2022-10-14T02:56:42.298Z,13.64
2022-10-14T02:56:55.253Z,13.62
2022-10-14T02:57:08.112Z,13.65
2022-10-14T02:57:40.892Z,13.67
2022-10-14T02:57:53.728Z,13.68
2022-10-14T02:58:06.558Z,13.67
2022-10-14T02:58:19.383Z,13.62
2022-10-14T02:58:32.567Z,13.59
2022-10-14T02:58:45.364Z,13.60
2022-10-14T02:58:58.188Z,13.59
2022-10-14T02:59:11.069Z,13.57
2022-10-14T02:59:43.803Z,13.48
2022-10-14T02:59:56.905Z,13.53
2022-10-14T03:00:10.917Z,13.61
2022-10-14T03:00:23.882Z,13.65
2022-10-14T03:00:36.741Z,13.66
2022-10-14T03:00:50.059Z,13.68
2022-10-14T03:01:02.909Z,13.65
2022-10-14T03:01:15.718Z,13.58
2022-10-14T03:01:29.985Z,13.54
2022-10-14T03:01:44.575Z,13.50
2022-10-14T03:01:58.356Z,13.60
2022-10-14T03:02:11.279Z,13.65
2022-10-14T03:02:26.828Z,13.65
2022-10-14T03:02:39.933Z,13.70
2022-10-14T03:02:53.808Z,13.74
2022-10-14T03:03:07.549Z,13.66
2022-10-14T03:03:20.478Z,13.68
2022-10-14T03:04:16.338Z,13.71
2022-10-14T03:04:29.163Z,13.56
2022-10-14T03:04:42.589Z,13.57
2022-10-14T03:05:15.532Z,13.61
2022-10-14T03:05:49.662Z,13.68
2022-10-14T03:06:02.711Z,13.61
2022-10-14T03:06:15.537Z,13.63
2022-10-14T03:06:28.943Z,13.55
2022-10-14T03:06:41.935Z,13.54
2022-10-14T03:06:55.144Z,13.54
2022-10-14T03:07:08.105Z,13.50
2022-10-14T03:07:41.092Z,13.50
2022-10-14T03:07:53.972Z,13.51
2022-10-14T03:08:07.173Z,13.47
2022-10-14T03:08:20.036Z,13.49
2022-10-14T03:08:33.044Z,13.54
2022-10-14T03:08:45.901Z,13.58
2022-10-14T03:08:58.754Z,13.66
2022-10-14T03:09:31.505Z,13.64
2022-10-14T03:09:44.709Z,13.55
2022-10-14T03:09:58.518Z,13.49
2022-10-14T03:10:12.298Z,13.39
2022-10-14T03:10:27.534Z,13.27
2022-10-14T03:10:41.422Z,13.33
2022-10-14T03:10:54.284Z,13.28
2022-10-14T03:11:07.100Z,13.31
2022-10-14T03:11:20.282Z,13.37
2022-10-14T03:11:35.118Z,13.36
2022-10-14T03:11:48.328Z,13.38
2022-10-14T03:12:21.525Z,13.34
2022-10-14T03:12:54.190Z,13.40
2022-10-14T03:13:07.098Z,13.46
2022-10-14T03:13:39.988Z,13.52
2022-10-14T03:13:52.987Z,13.60
2022-10-14T03:14:25.741Z,13.62
2022-10-14T03:14:38.931Z,13.60
2022-10-14T03:15:11.846Z,13.58
2022-10-14T03:15:44.725Z,13.46
2022-10-14T03:15:58.416Z,13.33
2022-10-14T03:16:11.497Z,13.37
2022-10-14T03:16:24.832Z,13.35
2022-10-14T03:16:37.639Z,13.36
2022-10-14T03:16:50.648Z,13.45
2022-10-14T03:17:03.886Z,13.56
2022-10-14T03:17:16.768Z,13.65
2022-10-14T03:17:31.786Z,13.66
2022-10-14T03:17:44.956Z,13.57
2022-10-14T03:17:58.469Z,13.56
2022-10-14T03:18:11.566Z,13.61
2022-10-14T03:18:44.357Z,13.64
2022-10-14T03:18:57.333Z,13.88
2022-10-14T03:19:11.119Z,13.94
2022-10-14T03:19:24.110Z,13.98
2022-10-14T03:19:37.336Z,14.03
2022-10-14T03:20:10.629Z,14.02
2022-10-14T03:20:23.616Z,14.01
2022-10-14T03:20:37.454Z,14.02
2022-10-14T03:20:51.406Z,14.00
2022-10-14T03:21:05.284Z,13.99
2022-10-14T03:21:39.397Z,13.86
2022-10-14T03:21:52.268Z,13.85
2022-10-14T03:22:05.087Z,13.82
2022-10-14T03:22:17.917Z,13.87
2022-10-14T03:22:31.131Z,13.84
2022-10-14T03:22:43.946Z,13.76
2022-10-14T03:22:56.862Z,13.78
2022-10-14T03:23:09.883Z,13.77
2022-10-14T03:23:23.195Z,13.81
2022-10-14T03:23:36.073Z,13.88
2022-10-14T03:23:49.098Z,13.91
2022-10-14T03:24:02.000Z,13.98
2022-10-14T03:24:14.849Z,14.05
2022-10-14T03:24:27.654Z,14.05
2022-10-14T03:24:40.666Z,14.12
2022-10-14T03:24:53.488Z,14.12
2022-10-14T03:25:07.019Z,14.12
2022-10-14T03:25:19.822Z,14.11
2022-10-14T03:25:32.863Z,14.13
2022-10-14T03:25:45.672Z,14.14
2022-10-14T03:25:58.922Z,14.17
2022-10-14T03:26:13.961Z,14.22
2022-10-14T03:26:28.221Z,14.21
2022-10-14T03:26:57.481Z,14.16
2022-10-14T03:27:10.351Z,14.10
2022-10-14T03:27:24.291Z,14.06
2022-10-14T03:27:37.601Z,13.98
2022-10-14T03:27:50.737Z,13.95
2022-10-14T03:28:04.058Z,13.92
2022-10-14T03:28:17.221Z,13.90
2022-10-14T03:28:30.322Z,13.86
2022-10-14T03:28:44.075Z,13.71
2022-10-14T03:28:57.192Z,13.72
2022-10-14T03:29:10.297Z,13.66
2022-10-14T03:29:43.261Z,13.65
2022-10-14T03:29:56.105Z,13.39
2022-10-14T03:30:09.782Z,13.38
2022-10-14T03:30:22.661Z,13.33
2022-10-14T03:30:37.369Z,13.26
2022-10-14T03:30:50.489Z,13.36
2022-10-14T03:31:03.665Z,13.39
2022-10-14T03:31:16.475Z,13.43
2022-10-14T03:31:29.563Z,13.43
2022-10-14T03:45:02.421Z,13.31
2022-10-14T03:45:16.023Z,13.36
2022-10-14T03:45:29.699Z,13.31
2022-10-14T03:45:44.458Z,13.30
2022-10-14T03:45:57.261Z,13.37
2022-10-14T03:46:10.161Z,13.39
2022-10-14T03:46:23.131Z,13.42
2022-10-14T03:46:56.194Z,13.43
2022-10-14T03:47:29.174Z,13.46
2022-10-14T03:47:42.493Z,13.43
2022-10-14T03:47:55.905Z,13.47
2022-10-14T03:48:28.870Z,13.50
2022-10-14T03:48:41.940Z,13.47
2022-10-14T03:48:54.788Z,13.46
2022-10-14T03:49:29.722Z,13.45
2022-10-14T03:49:43.064Z,13.38
2022-10-14T03:49:56.293Z,13.34
2022-10-14T03:50:12.578Z,13.38
2022-10-14T03:50:25.614Z,13.43
2022-10-14T03:50:38.511Z,13.44
2022-10-14T03:50:51.519Z,13.49
2022-10-14T03:51:04.540Z,13.47
2022-10-14T03:51:17.694Z,13.47
2022-10-14T03:51:30.752Z,13.41
2022-10-14T03:51:43.552Z,13.37
2022-10-14T03:51:56.596Z,13.32
2022-10-14T03:52:11.554Z,13.42
2022-10-14T03:52:46.792Z,13.36
2022-10-14T03:53:17.216Z,13.42
2022-10-14T03:53:30.089Z,13.35
2022-10-14T03:53:43.268Z,13.35
2022-10-14T03:53:56.443Z,13.28
2022-10-14T03:54:11.477Z,13.29
2022-10-14T03:54:24.355Z,13.25
2022-10-14T03:54:37.756Z,13.31
2022-10-14T03:54:50.825Z,13.34
2022-10-14T03:55:03.988Z,13.29
2022-10-14T03:55:17.387Z,13.25
2022-10-14T03:55:30.594Z,13.26
2022-10-14T04:12:20.089Z,13.69
2022-10-14T04:12:33.336Z,13.61
2022-10-14T04:12:47.244Z,13.62
2022-10-14T04:13:00.070Z,13.64
2022-10-14T04:13:14.096Z,13.64
2022-10-14T04:35:35.246Z,13.60
2022-10-14T04:39:46.946Z,13.66
2022-10-14T04:40:00.921Z,13.72
2022-10-14T04:40:40.890Z,13.76
2022-10-14T04:40:53.878Z,13.78
2022-10-14T04:42:00.179Z,13.88
2022-10-14T04:44:26.466Z,13.91
2022-10-14T04:44:39.561Z,13.86
2022-10-14T04:45:12.492Z,13.85
2022-10-14T04:47:44.974Z,14.06
2022-10-14T04:48:43.062Z,14.12
2022-10-14T04:48:56.005Z,14.19
2022-10-14T04:49:28.850Z,14.20
2022-10-14T04:50:01.853Z,14.19
2022-10-14T04:50:15.195Z,14.28
2022-10-14T04:50:28.674Z,14.30
2022-10-14T04:51:03.357Z,14.34
2022-10-14T04:52:09.802Z,14.13
2022-10-14T04:52:22.960Z,14.17
2022-10-14T04:53:29.500Z,14.18
2022-10-14T04:53:42.430Z,14.21
2022-10-14T04:53:55.436Z,14.27
2022-10-14T04:54:08.372Z,14.28
2022-10-14T04:54:21.371Z,14.31
2022-10-14T04:54:35.088Z,14.29
2022-10-14T04:55:08.140Z,14.31
2022-10-14T04:55:20.962Z,14.33
2022-10-14T04:55:33.870Z,14.32
2022-10-14T04:55:46.831Z,14.33
2022-10-14T04:56:01.790Z,14.32
2022-10-14T04:56:34.524Z,14.31
2022-10-14T04:56:47.327Z,14.28
2022-10-14T04:57:20.977Z,14.28
2022-10-14T04:57:34.125Z,14.15
2022-10-14T04:57:46.962Z,14.08
2022-10-14T04:57:59.798Z,14.09
2022-10-14T04:58:13.008Z,13.96
2022-10-14T04:58:25.860Z,13.94
2022-10-14T04:58:43.574Z,13.93
2022-10-14T04:58:56.492Z,13.95
2022-10-14T04:59:10.374Z,13.91
2022-10-14T04:59:23.668Z,13.91
2022-10-14T04:59:36.481Z,13.87
2022-10-14T04:59:50.287Z,13.83
2022-10-14T05:00:04.880Z,13.79
2022-10-14T05:00:17.853Z,13.84
2022-10-14T05:00:30.818Z,13.77
2022-10-14T05:00:43.702Z,13.84
2022-10-14T05:00:56.514Z,13.88
2022-10-14T05:01:33.773Z,13.89
2022-10-14T05:02:02.052Z,13.93
2022-10-14T05:02:15.139Z,13.92
2022-10-14T05:02:28.285Z,13.85
2022-10-14T05:02:41.732Z,13.79
2022-10-14T05:02:55.651Z,13.82
2022-10-14T05:03:28.368Z,13.79
2022-10-14T05:03:41.252Z,13.73
2022-10-14T05:03:54.031Z,13.70
2022-10-14T05:04:06.859Z,13.69
2022-10-14T05:04:20.010Z,13.65
2022-10-14T05:04:33.374Z,13.60
2022-10-14T05:05:06.722Z,13.60
2022-10-14T05:05:20.031Z,13.53
2022-10-14T05:05:32.866Z,13.44
2022-10-14T05:05:46.178Z,13.51
2022-10-14T05:06:18.944Z,13.46
2022-10-14T05:06:51.776Z,13.52
2022-10-14T05:07:04.609Z,13.64
2022-10-14T05:07:17.424Z,13.67
2022-10-14T05:07:31.189Z,13.55
2022-10-14T05:08:04.028Z,13.58
2022-10-14T05:08:16.852Z,13.52
2022-10-14T05:08:29.678Z,13.47
2022-10-14T05:08:42.925Z,13.43
2022-10-14T05:08:55.797Z,13.43
2022-10-14T05:09:09.031Z,13.51
2022-10-14T05:09:22.124Z,13.59
2022-10-14T05:09:35.183Z,13.53
2022-10-14T05:09:51.190Z,13.53
2022-10-14T05:10:05.876Z,13.58
2022-10-14T05:10:19.225Z,13.50
2022-10-14T05:10:51.965Z,13.42
2022-10-14T05:11:04.924Z,13.39
2022-10-14T05:11:18.193Z,13.40
2022-10-14T05:11:31.891Z,13.41
2022-10-14T05:12:04.968Z,13.41
2022-10-14T05:12:18.310Z,13.47
2022-10-14T05:12:31.756Z,13.44
2022-10-14T05:12:44.563Z,13.52
2022-10-14T05:12:57.804Z,13.54
2022-10-14T05:13:30.688Z,13.42
2022-10-14T05:13:43.573Z,13.49
2022-10-14T05:13:56.416Z,13.49
2022-10-14T05:14:29.628Z,13.53
2022-10-14T05:14:42.686Z,13.52
2022-10-14T05:14:58.491Z,13.54
2022-10-14T05:15:11.802Z,13.58
2022-10-14T05:15:44.524Z,13.57
2022-10-14T05:16:17.451Z,13.57
2022-10-14T05:16:30.720Z,13.51
2022-10-14T05:16:43.548Z,13.47
2022-10-14T05:16:56.357Z,13.44
2022-10-14T05:17:09.201Z,13.47
2022-10-14T05:17:22.549Z,13.53
2022-10-14T05:17:37.695Z,13.56
2022-10-14T05:17:50.984Z,13.43
2022-10-14T05:18:23.746Z,13.51
2022-10-14T05:18:36.802Z,13.59
2022-10-14T05:18:49.709Z,13.62
2022-10-14T05:19:07.023Z,13.68
2022-10-14T05:19:19.861Z,13.76
2022-10-14T05:19:32.668Z,13.79
2022-10-14T05:20:06.383Z,13.84
2022-10-14T05:20:19.311Z,13.84
2022-10-14T05:20:32.123Z,13.80
2022-10-14T05:20:44.956Z,13.74
2022-10-14T05:21:00.409Z,13.67
2022-10-14T05:21:13.951Z,13.66
2022-10-14T05:21:46.722Z,13.62
2022-10-14T05:21:59.639Z,13.59
2022-10-14T05:22:13.477Z,13.56
2022-10-14T05:22:26.356Z,13.48
2022-10-14T05:22:59.092Z,13.44
2022-10-14T05:23:31.804Z,13.27
2022-10-14T05:23:45.354Z,13.15
2022-10-14T05:24:07.759Z,13.14
2022-10-14T05:24:20.578Z,13.22
2022-10-14T05:24:33.840Z,13.26
2022-10-14T05:25:06.930Z,13.30
2022-10-14T05:25:19.805Z,13.40
2022-10-14T05:26:18.603Z,13.40
2022-10-14T05:26:31.813Z,13.41
2022-10-14T05:26:45.552Z,13.37
2022-10-14T05:27:18.608Z,13.33
2022-10-14T05:27:32.516Z,13.24
2022-10-14T05:28:07.341Z,13.18
2022-10-14T05:28:20.195Z,13.38
2022-10-14T05:28:33.201Z,13.35
2022-10-14T05:29:06.142Z,13.33
2022-10-14T05:29:18.981Z,13.40
2022-10-14T05:29:34.167Z,13.35
2022-10-14T05:29:55.248Z,13.35
2022-10-14T05:30:08.965Z,13.35
2022-10-14T05:30:42.439Z,13.39
2022-10-14T05:31:15.402Z,13.43
2022-10-14T05:31:28.197Z,13.48
2022-10-14T05:31:41.676Z,13.41
2022-10-14T05:31:54.780Z,13.37
2022-10-14T05:32:07.871Z,13.31
2022-10-14T05:32:20.917Z,13.26
2022-10-14T05:32:34.445Z,13.31
2022-10-14T05:32:47.446Z,13.32
2022-10-14T05:33:20.177Z,13.38
2022-10-14T05:33:53.235Z,13.63
2022-10-14T05:34:06.475Z,13.74
2022-10-14T05:34:19.459Z,13.78
2022-10-14T05:34:32.285Z,13.83
2022-10-14T05:34:45.424Z,13.86
2022-10-14T05:34:58.493Z,13.87
2022-10-14T05:35:57.083Z,13.81
2022-10-14T05:36:04.407Z,13.78
2022-10-14T05:36:17.764Z,13.77
2022-10-14T05:36:30.781Z,13.73
2022-10-14T05:37:03.522Z,13.68
2022-10-14T05:37:16.374Z,13.42
2022-10-14T05:37:53.384Z,13.38
2022-10-14T05:38:26.145Z,13.47
2022-10-14T05:38:39.581Z,13.41
2022-10-14T05:38:55.871Z,13.32
2022-10-14T05:39:29.262Z,13.33
2022-10-14T05:40:01.997Z,13.11
2022-10-14T05:40:15.058Z,12.94
2022-10-14T05:40:27.885Z,12.96
2022-10-14T05:40:40.899Z,12.96
2022-10-14T05:40:56.808Z,13.01
2022-10-14T05:41:10.202Z,13.04
2022-10-14T05:41:23.178Z,13.15
2022-10-14T05:41:36.221Z,13.27
2022-10-14T05:42:09.241Z,13.26
2022-10-14T05:42:42.000Z,13.39
2022-10-14T05:43:15.704Z,13.39
2022-10-14T05:43:49.027Z,13.28
2022-10-14T05:44:02.368Z,13.16
2022-10-14T05:44:16.261Z,13.12
2022-10-14T05:44:29.244Z,13.13
2022-10-14T05:45:02.139Z,13.12
2022-10-14T05:45:14.930Z,13.19
2022-10-14T05:45:27.870Z,13.28
2022-10-14T05:45:41.220Z,13.32
2022-10-14T05:46:14.858Z,13.34
2022-10-14T06:06:13.227Z,13.69
2022-10-14T06:06:28.975Z,13.72
2022-10-14T06:06:42.217Z,13.69
2022-10-14T06:07:15.101Z,13.69
2022-10-14T06:07:28.138Z,13.76
2022-10-14T06:07:41.028Z,13.82
2022-10-14T06:07:54.385Z,13.87
2022-10-14T06:08:07.341Z,13.92
2022-10-14T06:08:20.369Z,13.95
2022-10-14T06:08:33.404Z,13.99
2022-10-14T06:09:11.076Z,14.03
2022-10-14T06:09:24.321Z,14.12
2022-10-14T06:09:38.275Z,14.09
2022-10-14T06:10:11.668Z,14.07
2022-10-14T06:10:44.590Z,14.04
2022-10-14T06:10:57.844Z,13.95
2022-10-14T06:11:30.617Z,13.93
2022-10-14T06:12:04.015Z,14.02
2022-10-14T06:12:17.384Z,14.13
2022-10-14T06:12:30.711Z,14.16
2022-10-14T06:12:44.437Z,14.19
2022-10-14T06:12:57.552Z,14.21
2022-10-14T06:13:10.395Z,14.23
2022-10-14T06:13:43.138Z,14.26
2022-10-14T06:13:55.956Z,14.15
2022-10-14T06:14:28.844Z,14.02
2022-10-14T06:14:42.036Z,13.94
2022-10-14T06:15:15.312Z,13.90
2022-10-14T06:15:28.666Z,13.92
2022-10-14T06:16:05.790Z,13.93
2022-10-14T06:16:18.685Z,13.72
2022-10-14T06:16:51.596Z,13.71
2022-10-14T06:17:05.773Z,13.77
2022-10-14T06:17:38.788Z,13.73
2022-10-14T06:17:51.966Z,13.73
2022-10-14T06:18:04.985Z,13.71
2022-10-14T06:18:37.975Z,13.64
2022-10-14T06:18:54.312Z,13.70
2022-10-14T06:19:07.456Z,13.78
2022-10-14T06:19:20.774Z,13.74
2022-10-14T06:19:55.477Z,13.72
2022-10-14T06:20:09.091Z,13.71
2022-10-14T06:20:41.836Z,13.74
2022-10-14T06:21:14.824Z,13.90
2022-10-14T06:21:47.585Z,13.95
2022-10-14T06:22:00.715Z,13.95
2022-10-14T06:22:33.457Z,13.87
2022-10-14T06:22:46.482Z,13.75
2022-10-14T06:23:00.051Z,13.77
2022-10-14T06:23:13.047Z,13.77
2022-10-14T06:23:26.175Z,13.76
2022-10-14T06:23:59.066Z,13.73
2022-10-14T06:24:11.904Z,13.70
2022-10-14T06:24:25.278Z,13.72
2022-10-14T06:25:03.302Z,13.67
2022-10-14T06:25:17.322Z,13.68
2022-10-14T06:25:30.775Z,13.59
2022-10-14T06:25:43.823Z,13.46
2022-10-14T06:25:56.833Z,13.47
2022-10-14T06:26:10.269Z,13.51
2022-10-14T06:26:24.166Z,13.54
2022-10-14T06:26:37.324Z,13.56
2022-10-14T06:27:10.143Z,13.60
2022-10-14T06:27:22.945Z,13.65
2022-10-14T06:27:35.805Z,13.68
2022-10-14T06:27:48.659Z,13.71
2022-10-14T06:28:04.936Z,13.72
2022-10-14T06:28:37.870Z,13.77
2022-10-14T06:28:50.921Z,13.85
2022-10-14T06:29:03.887Z,13.94
2022-10-14T06:29:17.095Z,14.00
2022-10-14T06:29:37.612Z,14.06
2022-10-14T06:29:50.639Z,14.10
2022-10-14T06:30:23.349Z,14.12
2022-10-14T06:30:38.251Z,14.14
2022-10-14T06:30:54.307Z,14.22
2022-10-14T06:31:32.019Z,14.26
2022-10-14T06:31:59.793Z,14.20
2022-10-14T06:32:12.613Z,14.24
2022-10-14T06:32:25.431Z,14.25
2022-10-14T06:32:38.264Z,14.25
2022-10-14T06:32:52.968Z,14.29
2022-10-14T06:33:05.968Z,14.32
2022-10-14T06:33:18.954Z,14.33
2022-10-14T06:33:31.889Z,14.35
2022-10-14T06:33:45.072Z,14.41
2022-10-14T06:33:57.903Z,14.44
2022-10-14T06:34:10.964Z,14.47
2022-10-14T06:34:24.832Z,14.52
2022-10-14T06:34:37.748Z,14.48
2022-10-14T06:34:50.590Z,14.47
2022-10-14T06:35:03.568Z,14.49
2022-10-14T06:35:16.896Z,14.45
2022-10-14T06:35:29.700Z,14.47
2022-10-14T06:35:42.486Z,14.46
2022-10-14T06:35:55.390Z,14.45
2022-10-14T06:36:09.109Z,14.44
2022-10-14T06:37:05.583Z,14.40
2022-10-14T06:37:41.719Z,14.40
2022-10-14T06:37:56.653Z,14.36
2022-10-14T06:38:09.631Z,14.32
2022-10-14T06:38:23.320Z,14.30
2022-10-14T06:38:36.304Z,14.34
2022-10-14T06:38:49.692Z,14.36
2022-10-14T06:39:22.639Z,14.41
2022-10-14T06:39:35.522Z,14.42
2022-10-14T06:39:49.629Z,14.43
2022-10-14T06:40:03.164Z,14.42
2022-10-14T06:40:16.213Z,14.43
2022-10-14T06:40:29.383Z,14.44
2022-10-14T06:40:42.430Z,14.41
2022-10-14T06:40:55.755Z,14.37
2022-10-14T06:41:28.989Z,14.34
2022-10-14T06:41:41.829Z,14.32
2022-10-14T06:41:54.637Z,14.30
2022-10-14T06:42:12.760Z,14.31
2022-10-14T06:42:26.473Z,14.32
2022-10-14T06:43:00.783Z,14.33
2022-10-14T06:43:35.449Z,14.34
2022-10-14T06:44:08.845Z,14.27
2022-10-14T06:44:21.695Z,14.29
2022-10-14T06:44:55.502Z,14.30
2022-10-14T06:45:28.383Z,14.30
2022-10-14T07:16:36.241Z,15.40
2022-10-14T07:17:09.340Z,15.44
2022-10-14T07:17:23.155Z,15.44
2022-10-14T07:17:37.322Z,15.45
2022-10-14T07:18:10.312Z,15.39
2022-10-14T07:18:23.172Z,14.93
2022-10-14T07:18:56.136Z,14.84
2022-10-14T07:19:09.482Z,14.82
2022-10-14T07:19:42.260Z,14.82
2022-10-14T07:20:15.216Z,15.02
2022-10-14T07:20:28.045Z,15.16
2022-10-14T07:20:41.085Z,15.22
2022-10-14T07:20:53.899Z,15.26
2022-10-14T07:21:07.163Z,15.31
2022-10-14T07:21:20.137Z,15.32
2022-10-14T07:21:53.285Z,15.35
2022-10-14T07:22:26.096Z,15.46
2022-10-14T07:22:39.284Z,15.53
2022-10-14T07:23:12.823Z,15.57
2022-10-14T07:23:45.565Z,15.64
2022-10-14T07:24:18.490Z,15.67
2022-10-14T07:24:31.644Z,15.69
2022-10-14T07:25:05.037Z,15.68
2022-10-14T07:25:38.134Z,15.69
2022-10-14T07:26:10.883Z,15.69
2022-10-14T07:26:23.795Z,15.62
2022-10-14T07:26:36.655Z,15.66
2022-10-14T07:26:49.537Z,15.68
2022-10-14T07:27:16.417Z,15.69
2022-10-14T07:27:29.690Z,15.71
2022-10-14T07:27:42.563Z,15.69
2022-10-14T07:27:55.408Z,15.65
2022-10-14T07:28:08.260Z,15.68
2022-10-14T07:28:21.158Z,15.73
2022-10-14T07:28:34.330Z,15.75
2022-10-14T07:28:47.811Z,15.69
2022-10-14T07:29:20.509Z,15.71
2022-10-14T07:29:33.367Z,15.69
2022-10-14T07:30:06.490Z,15.70
2022-10-14T07:30:19.353Z,15.78
2022-10-14T07:30:32.374Z,15.77
2022-10-14T07:30:45.251Z,15.77
2022-10-14T07:31:18.048Z,15.76
2022-10-14T07:31:30.978Z,15.77
2022-10-14T07:31:43.819Z,15.78
2022-10-14T07:31:56.697Z,15.77
2022-10-14T07:32:09.955Z,15.82
2022-10-14T07:32:22.918Z,15.82
2022-10-14T07:32:37.070Z,15.83
2022-10-14T07:32:49.946Z,15.80
2022-10-14T07:33:22.726Z,15.79
2022-10-14T07:33:50.479Z,15.88
2022-10-14T07:34:03.811Z,15.79
2022-10-14T07:34:21.463Z,15.77
2022-10-14T07:34:54.209Z,15.83
2022-10-14T07:35:07.641Z,15.95
2022-10-14T07:35:20.549Z,15.97
2022-10-14T07:35:53.290Z,16.01
2022-10-14T07:36:09.774Z,15.90
2022-10-14T07:36:22.947Z,15.88
2022-10-14T07:36:36.195Z,15.91
2022-10-14T07:36:48.998Z,15.81
2022-10-14T07:37:22.154Z,15.89
2022-10-14T07:37:35.776Z,16.01
2022-10-14T07:37:50.428Z,16.05
2022-10-14T07:38:03.257Z,16.07
2022-10-14T07:38:16.762Z,16.02
2022-10-14T07:38:32.579Z,15.99
2022-10-14T07:38:45.521Z,15.98
2022-10-14T07:38:58.377Z,16.00